Time;durP1;ratioP1;P1;durP2;ratioP2;P2;SDS_P1;SDS_P2;PMS_P1;PMS_P2;Temp;Humidity;BMP_temperature;BMP_pressure;BME280_temperature;BME280_humidity;BME280_pressure;Samples;Min_cycle;Max_cycle;Signal;HPM_P1;HPM_P2
2023/10/20 00:01:27;;;;;;;230.20;61.17;;;;;;;;;;4973647;28;20811;-48
2023/10/20 00:03:53;;;;;;;231.83;65.70;;;;;;;;;;4973052;28;20851;-48
2023/10/20 00:06:19;;;;;;;230.63;62.77;;;;;;;;;;4972864;28;20432;-48
2023/10/20 00:08:45;;;;;;;231.33;63.03;;;;;;;;;;4967546;28;20552;-47
2023/10/20 00:11:12;;;;;;;229.07;60.37;;;;;;;;;;4973415;28;20948;-49
2023/10/20 00:13:38;;;;;;;233.47;66.50;;;;;;;;;;4973147;28;20428;-48
2023/10/20 00:16:05;;;;;;;229.90;60.27;;;;;;;;;;4973300;28;20465;-48
2023/10/20 00:18:31;;;;;;;232.13;65.70;;;;;;;;;;4973210;28;20456;-48
2023/10/20 00:20:57;;;;;;;231.27;64.03;;;;;;;;;;4973257;28;20405;-48
2023/10/20 00:23:23;;;;;;;232.83;65.80;;;;;;;;;;4973010;28;20418;-48
2023/10/20 00:25:49;;;;;;;234.57;66.37;;;;;;;;;;4972985;28;20577;-47
2023/10/20 00:28:15;;;;;;;230.27;63.23;;;;;;;;;;4973272;28;20415;-47
2023/10/20 00:30:41;;;;;;;232.23;65.67;;;;;;;;;;4973136;28;20416;-48
2023/10/20 00:33:08;;;;;;;230.80;62.90;;;;;;;;;;4972677;28;20425;-48
2023/10/20 00:35:34;;;;;;;234.00;66.67;;;;;;;;;;4969466;28;20562;-47
2023/10/20 00:38:01;;;;;;;234.13;67.50;;;;;;;;;;4972230;28;20567;-48
2023/10/20 00:40:27;;;;;;;233.37;66.70;;;;;;;;;;4972999;28;20932;-48
2023/10/20 00:42:53;;;;;;;238.00;69.27;;;;;;;;;;4972625;28;20500;-48
2023/10/20 00:45:19;;;;;;;232.97;65.27;;;;;;;;;;4972863;28;20962;-47
2023/10/20 00:47:45;;;;;;;235.93;72.07;;;;;;;;;;4972794;28;20937;-48
2023/10/20 00:50:13;;;;;;;229.27;60.97;;;;;;;;;;4972835;28;20427;-48
2023/10/20 00:52:39;;;;;;;231.67;62.83;;;;;;;;;;4972600;28;20498;-48
2023/10/20 00:55:07;;;;;;;228.50;62.00;;;;;;;;;;4972524;28;20515;-48
2023/10/20 00:57:34;;;;;;;228.30;60.13;;;;;;;;;;4972814;28;20507;-48
2023/10/20 01:00:00;;;;;;;229.70;62.97;;;;;;;;;;4972796;28;20409;-48
2023/10/20 01:02:26;;;;;;;229.37;62.37;;;;;;;;;;4972005;28;20591;-47
2023/10/20 01:04:52;;;;;;;230.87;62.70;;;;;;;;;;4971896;28;20432;-48
2023/10/20 01:07:19;;;;;;;232.60;65.57;;;;;;;;;;4973952;28;20447;-49
2023/10/20 01:09:46;;;;;;;231.80;63.87;;;;;;;;;;4964825;28;20411;-47
2023/10/20 01:12:12;;;;;;;232.05;65.10;;;;;;;;;;4972502;28;20823;-47
2023/10/20 01:14:38;;;;;;;230.17;60.00;;;;;;;;;;4972372;28;20312;-48
2023/10/20 01:17:03;;;;;;;230.30;62.60;;;;;;;;;;4972651;28;20416;-47
2023/10/20 01:19:29;;;;;;;226.80;59.73;;;;;;;;;;4974907;28;20413;-46
2023/10/20 01:21:55;;;;;;;229.53;61.27;;;;;;;;;;4976331;28;20417;-48
2023/10/20 01:24:21;;;;;;;233.13;64.53;;;;;;;;;;4976042;28;20442;-48
2023/10/20 01:26:47;;;;;;;232.60;66.03;;;;;;;;;;4976443;28;20485;-47
2023/10/20 01:29:13;;;;;;;227.90;60.17;;;;;;;;;;4976368;28;20411;-47
2023/10/20 01:31:39;;;;;;;232.57;64.33;;;;;;;;;;4976291;28;20181;-47
2023/10/20 01:34:05;;;;;;;231.07;62.77;;;;;;;;;;4975939;28;20440;-46
2023/10/20 01:36:31;;;;;;;232.47;64.33;;;;;;;;;;4976123;28;20782;-47
2023/10/20 01:38:57;;;;;;;229.97;60.57;;;;;;;;;;4976150;28;20495;-48
2023/10/20 01:41:23;;;;;;;229.17;59.70;;;;;;;;;;4976383;28;20824;-47
2023/10/20 01:43:49;;;;;;;231.87;62.30;;;;;;;;;;4975863;28;20488;-47
2023/10/20 01:46:15;;;;;;;232.70;66.63;;;;;;;;;;4976022;28;20422;-47
2023/10/20 01:48:41;;;;;;;231.97;63.57;;;;;;;;;;4975805;28;20435;-47
2023/10/20 01:51:07;;;;;;;232.03;66.93;;;;;;;;;;4975963;28;20806;-48
2023/10/20 01:53:33;;;;;;;230.30;60.97;;;;;;;;;;4975499;28;20512;-47
2023/10/20 01:55:59;;;;;;;234.50;65.73;;;;;;;;;;4975813;28;20972;-47
2023/10/20 01:58:25;;;;;;;232.27;62.90;;;;;;;;;;4975819;28;20409;-47
2023/10/20 02:00:52;;;;;;;231.93;63.10;;;;;;;;;;4975856;28;20449;-47
2023/10/20 02:03:19;;;;;;;230.37;61.47;;;;;;;;;;4975378;28;20408;-47
2023/10/20 02:05:46;;;;;;;229.80;60.80;;;;;;;;;;4975515;28;20463;-47
2023/10/20 02:08:12;;;;;;;231.60;63.60;;;;;;;;;;4975795;28;20417;-47
2023/10/20 02:10:38;;;;;;;233.00;65.33;;;;;;;;;;4975601;28;20422;-47
2023/10/20 02:13:04;;;;;;;229.70;60.00;;;;;;;;;;4975387;28;20421;-48
2023/10/20 02:15:30;;;;;;;231.07;61.90;;;;;;;;;;4975423;28;20468;-47
2023/10/20 02:17:59;;;;;;;231.57;64.40;;;;;;;;;;4975397;28;20935;-48
2023/10/20 02:20:26;;;;;;;229.47;59.87;;;;;;;;;;4975438;28;20467;-48
2023/10/20 02:22:55;;;;;;;235.17;68.07;;;;;;;;;;4975146;28;20460;-47
2023/10/20 02:25:22;;;;;;;231.47;64.27;;;;;;;;;;4975346;28;20538;-48
2023/10/20 02:27:48;;;;;;;228.37;58.90;;;;;;;;;;4975443;28;20488;-47
2023/10/20 02:30:15;;;;;;;232.93;65.67;;;;;;;;;;4974749;28;20410;-47
2023/10/20 02:32:42;;;;;;;231.10;60.17;;;;;;;;;;4974897;28;20961;-47
2023/10/20 02:35:08;;;;;;;231.53;64.37;;;;;;;;;;4974889;28;20560;-48
2023/10/20 02:37:35;;;;;;;234.63;66.03;;;;;;;;;;4975118;28;20409;-48
2023/10/20 02:40:04;;;;;;;230.57;61.70;;;;;;;;;;4975238;28;20412;-47
2023/10/20 02:42:31;;;;;;;232.60;63.60;;;;;;;;;;4974966;28;20529;-48
2023/10/20 02:44:57;;;;;;;231.10;62.23;;;;;;;;;;4974685;28;20429;-47
2023/10/20 02:47:22;;;;;;;230.23;63.33;;;;;;;;;;4975101;28;20424;-48
2023/10/20 02:49:53;;;;;;;228.80;60.17;;;;;;;;;;4975003;28;20806;-47
2023/10/20 02:52:19;;;;;;;232.00;64.03;;;;;;;;;;4974132;28;20764;-47
2023/10/20 02:54:46;;;;;;;232.17;64.37;;;;;;;;;;4974424;28;20212;-47
2023/10/20 02:57:12;;;;;;;230.03;61.43;;;;;;;;;;4974994;28;20397;-47
2023/10/20 02:59:38;;;;;;;231.00;61.97;;;;;;;;;;4974896;28;20409;-48
2023/10/20 03:02:04;;;;;;;231.03;61.57;;;;;;;;;;4974848;28;20499;-48
2023/10/20 03:04:30;;;;;;;232.30;63.30;;;;;;;;;;4974581;28;20993;-48
2023/10/20 03:06:56;;;;;;;230.77;62.57;;;;;;;;;;4974744;28;20420;-47
2023/10/20 03:09:22;;;;;;;231.40;63.37;;;;;;;;;;4974720;28;20405;-46
2023/10/20 03:11:48;;;;;;;231.80;62.63;;;;;;;;;;4974702;28;20405;-47
2023/10/20 03:14:14;;;;;;;230.50;64.53;;;;;;;;;;4974243;28;20471;-48
2023/10/20 03:16:42;;;;;;;230.40;63.37;;;;;;;;;;4974614;28;20428;-48
2023/10/20 03:19:11;;;;;;;230.53;60.37;;;;;;;;;;4974605;28;20407;-47
2023/10/20 03:21:38;;;;;;;231.13;62.30;;;;;;;;;;4974533;28;20405;-47
2023/10/20 03:24:04;;;;;;;230.37;63.10;;;;;;;;;;4974225;28;20435;-49
2023/10/20 03:26:31;;;;;;;230.90;62.50;;;;;;;;;;4974432;28;20401;-48
2023/10/20 03:28:58;;;;;;;233.77;67.93;;;;;;;;;;4974358;28;20427;-47
2023/10/20 03:31:24;;;;;;;232.40;65.43;;;;;;;;;;4974260;28;20409;-47
2023/10/20 03:33:50;;;;;;;231.43;62.10;;;;;;;;;;4973996;28;20452;-47
2023/10/20 03:36:16;;;;;;;232.20;62.80;;;;;;;;;;4974237;28;20453;-47
2023/10/20 03:38:42;;;;;;;231.80;64.73;;;;;;;;;;4974214;28;20173;-47
2023/10/20 03:41:11;;;;;;;230.57;61.50;;;;;;;;;;4973317;28;20813;-47
2023/10/20 03:43:37;;;;;;;230.05;61.25;;;;;;;;;;4974223;28;20737;-47
2023/10/20 03:46:04;;;;;;;231.73;63.10;;;;;;;;;;4974086;28;20216;-47
2023/10/20 03:48:31;;;;;;;230.32;60.30;;;;;;;;;;4974085;28;20423;-47
2023/10/20 03:50:58;;;;;;;229.43;60.33;;;;;;;;;;4973988;28;20172;-47
2023/10/20 03:53:39;;;;;;;227.63;57.90;;;;;;;;;;4973677;28;20431;-47
2023/10/20 03:56:09;;;;;;;233.27;64.40;;;;;;;;;;4973812;28;20467;-47
2023/10/20 03:58:36;;;;;;;228.23;58.40;;;;;;;;;;4973907;28;20412;-48
2023/10/20 04:01:02;;;;;;;230.32;61.22;;;;;;;;;;4974037;28;20397;-47
2023/10/20 04:03:31;;;;;;;228.97;59.53;;;;;;;;;;4973453;28;20169;-47
2023/10/20 04:05:57;;;;;;;228.68;59.33;;;;;;;;;;4973590;28;20444;-47
2023/10/20 04:08:24;;;;;;;231.47;64.23;;;;;;;;;;4973561;28;20293;-47
2023/10/20 04:10:57;;;;;;;227.90;59.67;;;;;;;;;;4973681;28;20405;-48
2023/10/20 04:13:23;;;;;;;229.27;61.33;;;;;;;;;;4973379;28;20252;-46
2023/10/20 04:15:49;;;;;;;232.97;65.70;;;;;;;;;;4973661;28;20622;-48
2023/10/20 04:18:19;;;;;;;228.70;58.67;;;;;;;;;;4972223;28;20409;-48
2023/10/20 04:20:48;;;;;;;228.87;59.93;;;;;;;;;;4973494;28;20420;-48
2023/10/20 04:23:14;;;;;;;230.27;60.93;;;;;;;;;;4973120;28;20413;-47
2023/10/20 04:25:44;;;;;;;231.50;62.23;;;;;;;;;;4974478;28;20503;-48
2023/10/20 04:49:59;;;;;;;228.00;59.33;;;;;;;;;;4973225;28;20412;-48
2023/10/20 04:52:55;;;;;;;228.57;59.20;;;;;;;;;;4972705;28;20184;-48
2023/10/20 05:02:57;;;;;;;231.73;61.67;;;;;;;;;;4972823;28;20442;-47
2023/10/20 05:05:43;;;;;;;229.50;59.13;;;;;;;;;;4973011;28;20186;-47
2023/10/20 05:10:35;;;;;;;228.00;59.40;;;;;;;;;;4972989;28;20434;-47
2023/10/20 05:13:01;;;;;;;233.47;63.27;;;;;;;;;;4972456;28;20416;-47
2023/10/20 05:15:31;;;;;;;229.43;62.13;;;;;;;;;;4971481;28;20476;-47
2023/10/20 05:17:57;;;;;;;231.93;63.05;;;;;;;;;;4972903;28;20404;-48
2023/10/20 05:20:24;;;;;;;229.10;63.37;;;;;;;;;;4972810;28;20204;-47
2023/10/20 05:22:50;;;;;;;236.10;67.60;;;;;;;;;;4972544;28;20471;-47
2023/10/20 05:25:17;;;;;;;230.77;63.60;;;;;;;;;;4972749;28;20622;-48
2023/10/20 05:27:43;;;;;;;230.95;62.25;;;;;;;;;;4972652;28;20256;-48
2023/10/20 05:30:09;;;;;;;229.77;61.73;;;;;;;;;;4972583;28;20613;-48
2023/10/20 05:32:37;;;;;;;230.03;61.37;;;;;;;;;;4972637;28;20405;-48
2023/10/20 05:35:03;;;;;;;226.68;59.88;;;;;;;;;;4972437;28;20449;-48
2023/10/20 05:37:29;;;;;;;228.20;59.40;;;;;;;;;;4972630;28;20165;-48
2023/10/20 05:39:55;;;;;;;228.87;59.77;;;;;;;;;;4972696;28;20449;-48
2023/10/20 05:42:22;;;;;;;227.50;58.97;;;;;;;;;;4972723;28;21068;-48
2023/10/20 05:44:58;;;;;;;226.35;57.78;;;;;;;;;;4972299;28;20427;-48
2023/10/20 05:47:25;;;;;;;232.37;63.77;;;;;;;;;;4972816;28;20192;-48
2023/10/20 05:49:51;;;;;;;231.32;63.33;;;;;;;;;;4972586;28;20907;-48
2023/10/20 05:52:17;;;;;;;231.13;64.47;;;;;;;;;;4972523;28;20172;-47
2023/10/20 05:54:43;;;;;;;229.77;59.70;;;;;;;;;;4972037;28;20644;-48
2023/10/20 05:57:09;;;;;;;228.73;60.60;;;;;;;;;;4972531;28;20839;-48
2023/10/20 05:59:35;;;;;;;229.73;62.47;;;;;;;;;;4971205;28;20411;-48
2023/10/20 06:02:03;;;;;;;228.20;59.67;;;;;;;;;;4972534;28;20403;-48
2023/10/20 06:04:29;;;;;;;230.03;64.30;;;;;;;;;;4972836;28;20912;-48
2023/10/20 06:06:56;;;;;;;230.23;63.27;;;;;;;;;;4975804;28;20442;-47
2023/10/20 06:09:25;;;;;;;227.83;60.23;;;;;;;;;;4975790;28;20957;-48
2023/10/20 06:11:53;;;;;;;230.83;62.57;;;;;;;;;;4975790;28;20412;-47
2023/10/20 06:14:20;;;;;;;232.18;65.13;;;;;;;;;;4975590;28;20496;-47
2023/10/20 06:16:46;;;;;;;229.17;60.93;;;;;;;;;;4975841;28;20665;-48
2023/10/20 06:19:12;;;;;;;229.43;62.20;;;;;;;;;;4975785;28;20442;-48
2023/10/20 06:21:42;;;;;;;228.47;61.00;;;;;;;;;;4974389;28;20440;-47
2023/10/20 06:24:08;;;;;;;229.67;62.47;;;;;;;;;;4975678;28;20425;-48
2023/10/20 06:26:34;;;;;;;229.40;60.80;;;;;;;;;;4975555;28;20408;-47
2023/10/20 06:29:00;;;;;;;227.53;60.70;;;;;;;;;;4975668;28;20496;-48
2023/10/20 06:34:23;;;;;;;227.60;59.87;;;;;;;;;;4975175;28;20427;-48
2023/10/20 06:36:48;;;;;;;229.23;62.90;;;;;;;;;;4975270;28;21011;-48
2023/10/20 06:39:14;;;;;;;228.97;62.03;;;;;;;;;;4975386;28;20407;-48
2023/10/20 06:41:40;;;;;;;230.88;64.18;;;;;;;;;;4975211;28;20389;-48
2023/10/20 06:44:06;;;;;;;232.30;64.63;;;;;;;;;;4974987;28;20197;-47
2023/10/20 06:46:32;;;;;;;227.97;61.97;;;;;;;;;;4975201;28;20166;-48
2023/10/20 06:48:58;;;;;;;230.23;61.77;;;;;;;;;;4975084;28;20452;-48
2023/10/20 06:51:28;;;;;;;229.00;62.38;;;;;;;;;;4975155;28;20433;-48
2023/10/20 06:53:54;;;;;;;232.98;66.88;;;;;;;;;;4974521;28;20185;-48
2023/10/20 06:56:20;;;;;;;225.87;58.00;;;;;;;;;;4976568;28;20201;-48
2023/10/20 06:58:47;;;;;;;229.73;62.67;;;;;;;;;;4974789;28;20419;-47
2023/10/20 07:01:13;;;;;;;227.80;60.03;;;;;;;;;;4973887;28;20920;-47
2023/10/20 07:03:39;;;;;;;229.77;62.93;;;;;;;;;;4973548;28;20408;-48
2023/10/20 07:06:09;;;;;;;231.53;63.07;;;;;;;;;;4974069;28;20432;-48
2023/10/20 07:08:35;;;;;;;225.23;58.07;;;;;;;;;;4974002;28;20937;-47
2023/10/20 07:11:05;;;;;;;231.88;64.15;;;;;;;;;;4973829;28;20427;-48
2023/10/20 07:13:31;;;;;;;232.47;65.17;;;;;;;;;;4973632;28;20213;-48
2023/10/20 07:15:58;;;;;;;228.37;62.20;;;;;;;;;;4967700;28;20475;-48
2023/10/20 07:18:24;;;;;;;229.07;62.80;;;;;;;;;;4973870;28;20501;-48
2023/10/20 07:20:50;;;;;;;228.03;59.50;;;;;;;;;;4973734;28;20445;-48
2023/10/20 07:23:18;;;;;;;231.87;64.57;;;;;;;;;;4973373;28;20421;-49
2023/10/20 07:25:44;;;;;;;231.57;60.13;;;;;;;;;;4972186;28;20475;-48
2023/10/20 07:28:10;;;;;;;233.13;64.97;;;;;;;;;;4972363;28;20444;-47
2023/10/20 07:30:37;;;;;;;233.03;63.20;;;;;;;;;;4972282;28;20908;-47
2023/10/20 07:33:03;;;;;;;236.20;65.80;;;;;;;;;;4971531;28;20508;-48
2023/10/20 07:35:29;;;;;;;232.25;62.60;;;;;;;;;;4972563;28;20201;-47
2023/10/20 07:37:55;;;;;;;226.17;58.07;;;;;;;;;;4972656;28;20212;-47
2023/10/20 07:40:26;;;;;;;232.77;65.10;;;;;;;;;;4973950;28;20805;-47
2023/10/20 07:42:52;;;;;;;227.83;61.10;;;;;;;;;;4974063;28;20883;-49
2023/10/20 07:45:18;;;;;;;229.82;62.92;;;;;;;;;;4973855;28;20512;-47
2023/10/20 07:47:44;;;;;;;227.90;61.17;;;;;;;;;;4973896;28;20224;-48
2023/10/20 07:50:10;;;;;;;227.07;58.40;;;;;;;;;;4973795;28;20416;-48
2023/10/20 07:52:36;;;;;;;231.17;63.60;;;;;;;;;;4973654;28;20897;-48
2023/10/20 07:55:02;;;;;;;232.07;66.77;;;;;;;;;;4973463;28;20465;-48
2023/10/20 07:57:28;;;;;;;227.20;61.27;;;;;;;;;;4973419;28;20454;-47
2023/10/20 07:59:54;;;;;;;229.32;62.25;;;;;;;;;;4974112;28;20417;-48
2023/10/20 08:02:20;;;;;;;230.40;65.77;;;;;;;;;;4973522;28;20192;-48
2023/10/20 08:04:47;;;;;;;228.40;64.37;;;;;;;;;;4973413;28;20868;-49
2023/10/20 08:07:12;;;;;;;228.10;61.80;;;;;;;;;;4973584;28;20429;-49
2023/10/20 08:09:39;;;;;;;230.90;66.07;;;;;;;;;;4973374;28;20427;-48
2023/10/20 08:12:05;;;;;;;228.10;63.33;;;;;;;;;;4973448;28;20413;-47
2023/10/20 08:14:33;;;;;;;229.83;62.03;;;;;;;;;;4972085;28;20304;-47
2023/10/20 08:17:03;;;;;;;227.80;61.22;;;;;;;;;;4973473;28;20401;-48
2023/10/20 08:19:29;;;;;;;231.57;66.07;;;;;;;;;;4973482;28;20201;-47
2023/10/20 08:21:55;;;;;;;228.03;63.70;;;;;;;;;;4973401;28;20455;-47
2023/10/20 08:24:21;;;;;;;232.27;63.50;;;;;;;;;;4973132;28;20495;-48
2023/10/20 08:26:47;;;;;;;227.63;60.20;;;;;;;;;;4973058;28;20419;-48
2023/10/20 08:29:13;;;;;;;231.17;65.27;;;;;;;;;;4973149;28;20444;-48
2023/10/20 08:31:39;;;;;;;231.63;63.67;;;;;;;;;;4973258;28;20908;-48
2023/10/20 08:34:06;;;;;;;232.77;66.80;;;;;;;;;;4973046;28;20425;-48
2023/10/20 08:36:32;;;;;;;231.15;65.88;;;;;;;;;;4973283;28;20542;-48
2023/10/20 08:39:01;;;;;;;232.07;65.63;;;;;;;;;;4973188;28;20173;-48
2023/10/20 08:41:28;;;;;;;232.18;66.97;;;;;;;;;;4971847;28;20451;-48
2023/10/20 08:43:56;;;;;;;228.13;61.73;;;;;;;;;;4971529;28;20173;-48
2023/10/20 08:46:25;;;;;;;232.47;65.33;;;;;;;;;;4973171;28;20779;-48
2023/10/20 08:48:52;;;;;;;227.10;60.33;;;;;;;;;;4973235;28;20491;-48
2023/10/20 08:51:18;;;;;;;230.77;64.07;;;;;;;;;;4973062;28;20170;-48
2023/10/20 08:53:45;;;;;;;232.60;65.37;;;;;;;;;;4972553;28;20905;-49
2023/10/20 08:56:12;;;;;;;231.50;63.47;;;;;;;;;;4973015;28;20441;-48
2023/10/20 08:58:38;;;;;;;230.98;65.95;;;;;;;;;;4973058;28;20400;-48
2023/10/20 09:01:05;;;;;;;229.45;63.15;;;;;;;;;;4973030;28;20186;-48
2023/10/20 09:03:41;;;;;;;228.20;62.47;;;;;;;;;;4972726;28;20587;-48
2023/10/20 09:06:09;;;;;;;228.83;61.33;;;;;;;;;;4972830;28;20420;-48
2023/10/20 09:08:35;;;;;;;228.30;61.20;;;;;;;;;;4972765;28;20500;-48
2023/10/20 09:11:01;;;;;;;229.73;64.30;;;;;;;;;;4972944;28;20253;-49
2023/10/20 09:13:34;;;;;;;228.97;62.13;;;;;;;;;;4972651;28;20451;-48
2023/10/20 09:16:07;;;;;;;228.53;61.70;;;;;;;;;;4972830;28;20482;-48
2023/10/20 09:18:33;;;;;;;229.17;64.17;;;;;;;;;;4972982;28;20444;-48
2023/10/20 09:21:04;;;;;;;227.97;63.17;;;;;;;;;;4972729;28;20441;-48
2023/10/20 09:23:30;;;;;;;232.40;67.53;;;;;;;;;;4972553;28;20407;-48
2023/10/20 09:25:56;;;;;;;227.73;59.90;;;;;;;;;;4972720;28;20508;-47
2023/10/20 09:28:22;;;;;;;227.37;61.67;;;;;;;;;;4972834;28;20405;-48
2023/10/20 09:30:48;;;;;;;225.48;59.53;;;;;;;;;;4972758;28;20412;-48
2023/10/20 09:33:14;;;;;;;227.38;61.42;;;;;;;;;;4972528;28;20176;-48
2023/10/20 09:35:42;;;;;;;231.57;64.67;;;;;;;;;;4971476;28;20208;-48
2023/10/20 09:38:11;;;;;;;231.57;64.82;;;;;;;;;;4971337;28;20412;-48
2023/10/20 09:40:39;;;;;;;228.27;60.53;;;;;;;;;;4968362;28;20169;-48
2023/10/20 09:43:14;;;;;;;230.23;62.80;;;;;;;;;;4960467;28;20453;-48
2023/10/20 09:45:43;;;;;;;229.27;63.00;;;;;;;;;;4957226;29;20512;-48
2023/10/20 09:48:18;;;;;;;226.48;61.35;;;;;;;;;;4955411;28;20414;-48
2023/10/20 09:50:46;;;;;;;233.43;66.50;;;;;;;;;;4955079;28;20170;-48
2023/10/20 09:53:14;;;;;;;233.03;64.53;;;;;;;;;;4954623;28;20480;-48
2023/10/20 09:55:42;;;;;;;232.50;66.33;;;;;;;;;;4956051;28;20494;-48
2023/10/20 09:58:08;;;;;;;227.67;60.60;;;;;;;;;;4955281;28;20764;-48
2023/10/20 10:00:36;;;;;;;230.30;62.80;;;;;;;;;;4956707;29;20921;-48
2023/10/20 10:03:04;;;;;;;233.03;67.33;;;;;;;;;;4956406;29;20402;-48
2023/10/20 10:05:31;;;;;;;229.27;64.70;;;;;;;;;;4956640;28;20414;-49
2023/10/20 10:08:06;;;;;;;232.67;65.90;;;;;;;;;;4956584;29;20417;-48
2023/10/20 10:10:33;;;;;;;233.77;69.13;;;;;;;;;;4955293;29;20416;-49
2023/10/20 10:13:05;;;;;;;234.07;67.50;;;;;;;;;;4956187;29;20445;-48
2023/10/20 10:15:41;;;;;;;228.15;61.03;;;;;;;;;;4956501;28;20468;-48
2023/10/20 10:18:11;;;;;;;228.20;60.83;;;;;;;;;;4956513;28;20173;-47
2023/10/20 10:20:43;;;;;;;229.90;62.70;;;;;;;;;;4956391;29;20415;-47
2023/10/20 10:23:14;;;;;;;226.87;60.33;;;;;;;;;;4954844;29;20417;-47
2023/10/20 10:25:44;;;;;;;228.40;61.17;;;;;;;;;;4956853;28;20508;-49
2023/10/20 10:28:11;;;;;;;228.47;64.33;;;;;;;;;;4975472;28;20503;-49
2023/10/20 10:30:38;;;;;;;230.27;63.83;;;;;;;;;;4985467;28;20414;-47
2023/10/20 10:33:05;;;;;;;229.03;62.27;;;;;;;;;;4975253;28;20545;-48
2023/10/20 10:35:31;;;;;;;229.97;63.57;;;;;;;;;;4975386;28;20493;-48
2023/10/20 10:37:57;;;;;;;225.60;60.53;;;;;;;;;;4975209;28;20427;-48
2023/10/20 10:40:25;;;;;;;230.47;64.20;;;;;;;;;;4975287;28;20423;-48
2023/10/20 10:42:51;;;;;;;233.07;65.20;;;;;;;;;;4974928;28;20464;-48
2023/10/20 10:45:19;;;;;;;231.53;65.67;;;;;;;;;;4975154;28;20425;-48
2023/10/20 10:47:46;;;;;;;229.82;63.55;;;;;;;;;;4975233;28;20466;-47
2023/10/20 10:50:12;;;;;;;229.37;62.37;;;;;;;;;;4974906;28;20658;-47
2023/10/20 10:52:38;;;;;;;229.00;62.10;;;;;;;;;;4974501;28;20412;-48
2023/10/20 10:55:04;;;;;;;231.37;64.30;;;;;;;;;;4974988;28;20464;-49
2023/10/20 10:57:31;;;;;;;231.67;65.47;;;;;;;;;;4975186;28;20770;-47
2023/10/20 10:59:57;;;;;;;228.52;61.13;;;;;;;;;;4974791;28;20420;-47
2023/10/20 11:02:23;;;;;;;226.70;60.30;;;;;;;;;;4974988;28;20162;-47
2023/10/20 11:04:49;;;;;;;229.27;61.60;;;;;;;;;;4974689;28;20436;-47
2023/10/20 11:07:15;;;;;;;231.93;66.33;;;;;;;;;;4974741;28;20423;-47
2023/10/20 11:09:42;;;;;;;228.07;61.03;;;;;;;;;;4974897;28;20891;-47
2023/10/20 11:12:11;;;;;;;231.87;66.73;;;;;;;;;;4974696;28;20444;-48
2023/10/20 11:14:39;;;;;;;227.97;61.47;;;;;;;;;;4974380;28;20476;-48
2023/10/20 11:17:05;;;;;;;228.27;61.00;;;;;;;;;;4974770;28;20455;-48
2023/10/20 11:19:31;;;;;;;227.13;59.80;;;;;;;;;;4974696;28;20830;-48
2023/10/20 11:21:57;;;;;;;228.97;61.77;;;;;;;;;;4974430;28;20455;-48
2023/10/20 11:24:35;;;;;;;228.50;62.33;;;;;;;;;;4974302;28;20512;-47
2023/10/20 11:27:02;;;;;;;229.50;63.47;;;;;;;;;;4974501;28;20440;-48
2023/10/20 11:29:29;;;;;;;228.20;62.55;;;;;;;;;;4967403;28;20471;-48
2023/10/20 11:31:56;;;;;;;230.80;64.20;;;;;;;;;;4974311;28;20204;-49
2023/10/20 11:34:22;;;;;;;228.90;62.10;;;;;;;;;;4973379;28;20418;-48
2023/10/20 11:36:48;;;;;;;230.73;65.83;;;;;;;;;;4974207;28;20413;-48
2023/10/20 11:39:15;;;;;;;230.03;63.87;;;;;;;;;;4974290;28;20433;-48
2023/10/20 11:41:41;;;;;;;228.30;60.07;;;;;;;;;;4973167;28;20423;-48
2023/10/20 11:44:08;;;;;;;227.20;60.10;;;;;;;;;;4973828;28;20429;-48
2023/10/20 11:46:34;;;;;;;226.25;59.28;;;;;;;;;;4974686;28;20409;-48
2023/10/20 11:49:00;;;;;;;230.97;63.07;;;;;;;;;;4973954;28;20178;-48
2023/10/20 11:51:26;;;;;;;228.47;62.17;;;;;;;;;;4974051;28;20492;-48
2023/10/20 11:53:52;;;;;;;229.57;62.57;;;;;;;;;;4973673;28;20429;-48
2023/10/20 11:56:19;;;;;;;229.83;61.50;;;;;;;;;;4973837;28;20466;-48
2023/10/20 11:58:45;;;;;;;226.27;59.53;;;;;;;;;;4973994;28;20464;-48
2023/10/20 12:01:11;;;;;;;230.87;65.07;;;;;;;;;;4973839;28;20256;-49
2023/10/20 12:03:37;;;;;;;231.97;66.47;;;;;;;;;;4972691;28;20420;-48
2023/10/20 12:06:03;;;;;;;228.50;60.77;;;;;;;;;;4973661;28;20433;-48
2023/10/20 12:08:32;;;;;;;228.53;63.67;;;;;;;;;;4973751;28;20413;-47
2023/10/20 12:11:00;;;;;;;231.77;67.50;;;;;;;;;;4974042;28;20806;-47
2023/10/20 12:13:26;;;;;;;227.88;62.10;;;;;;;;;;4973461;28;20409;-47
2023/10/20 12:15:52;;;;;;;229.23;62.63;;;;;;;;;;4973384;28;20201;-48
2023/10/20 12:18:18;;;;;;;230.80;63.27;;;;;;;;;;4973526;28;20408;-48
2023/10/20 12:20:47;;;;;;;227.87;63.43;;;;;;;;;;4973412;28;20467;-48
2023/10/20 12:23:13;;;;;;;227.23;60.50;;;;;;;;;;4973279;28;20416;-48
2023/10/20 12:25:39;;;;;;;228.32;60.13;;;;;;;;;;4973418;28;20325;-48
2023/10/20 12:28:06;;;;;;;230.93;65.33;;;;;;;;;;4973434;28;20283;-48
2023/10/20 12:30:32;;;;;;;227.57;60.37;;;;;;;;;;4973296;28;20901;-48
2023/10/20 12:32:59;;;;;;;232.82;63.50;;;;;;;;;;4973123;28;20488;-48
2023/10/20 12:35:25;;;;;;;231.55;63.17;;;;;;;;;;4972120;28;20200;-48
2023/10/20 12:37:51;;;;;;;227.77;58.80;;;;;;;;;;4978583;28;20173;-48
2023/10/20 12:40:18;;;;;;;230.23;62.93;;;;;;;;;;4973213;28;20484;-48
2023/10/20 12:42:44;;;;;;;233.60;66.57;;;;;;;;;;4972979;28;20409;-48
2023/10/20 12:45:10;;;;;;;230.77;64.30;;;;;;;;;;4973053;28;20193;-48
2023/10/20 12:47:37;;;;;;;229.03;60.37;;;;;;;;;;4973193;28;20606;-48
2023/10/20 12:50:03;;;;;;;231.40;62.37;;;;;;;;;;4973121;28;20420;-48
2023/10/20 12:52:29;;;;;;;228.27;61.35;;;;;;;;;;4973054;28;20463;-48
2023/10/20 12:54:55;;;;;;;227.90;59.90;;;;;;;;;;4972746;28;20617;-50
2023/10/20 12:57:21;;;;;;;228.50;60.03;;;;;;;;;;4971605;28;20169;-48
2023/10/20 12:59:47;;;;;;;229.57;63.30;;;;;;;;;;4973276;28;20455;-48
2023/10/20 13:02:13;;;;;;;228.70;60.60;;;;;;;;;;4972919;28;20458;-47
2023/10/20 13:04:39;;;;;;;234.47;66.80;;;;;;;;;;4972771;28;20432;-48
2023/10/20 13:07:06;;;;;;;230.70;61.57;;;;;;;;;;4972819;28;20425;-49
2023/10/20 13:09:32;;;;;;;229.40;61.80;;;;;;;;;;4973031;28;20408;-47
2023/10/20 13:11:58;;;;;;;234.20;66.03;;;;;;;;;;4973253;28;20536;-48
2023/10/20 13:14:24;;;;;;;231.37;63.87;;;;;;;;;;4975131;28;20516;-48
2023/10/20 13:16:50;;;;;;;231.55;64.20;;;;;;;;;;4977000;28;20409;-49
2023/10/20 13:19:16;;;;;;;231.70;62.97;;;;;;;;;;4976835;28;20169;-48
2023/10/20 13:21:42;;;;;;;231.30;61.27;;;;;;;;;;4976737;28;20628;-49
2023/10/20 13:24:08;;;;;;;231.18;60.63;;;;;;;;;;4976458;28;20477;-48
2023/10/20 13:26:34;;;;;;;228.75;59.10;;;;;;;;;;4976600;28;20187;-47
2023/10/20 13:29:00;;;;;;;230.60;60.90;;;;;;;;;;4976602;28;20220;-48
2023/10/20 13:31:27;;;;;;;227.57;57.47;;;;;;;;;;4976670;28;20408;-49
2023/10/20 13:33:53;;;;;;;231.35;61.88;;;;;;;;;;4976228;28;20459;-47
2023/10/20 13:36:19;;;;;;;229.85;62.17;;;;;;;;;;4976615;28;20209;-48
2023/10/20 13:38:45;;;;;;;229.38;60.65;;;;;;;;;;4976569;28;20169;-47
2023/10/20 13:41:14;;;;;;;231.83;64.40;;;;;;;;;;4976424;28;20169;-48
2023/10/20 13:43:41;;;;;;;227.82;60.38;;;;;;;;;;4976105;28;20488;-48
2023/10/20 13:46:07;;;;;;;232.13;65.30;;;;;;;;;;4976357;28;20221;-48
2023/10/20 13:48:33;;;;;;;230.50;64.20;;;;;;;;;;4976334;28;20397;-48
2023/10/20 13:50:59;;;;;;;226.33;57.80;;;;;;;;;;4976336;28;20176;-48
2023/10/20 13:53:25;;;;;;;227.07;59.37;;;;;;;;;;4975949;28;20423;-48
2023/10/20 13:55:51;;;;;;;227.27;58.08;;;;;;;;;;4975857;28;20452;-48
2023/10/20 13:58:18;;;;;;;226.55;58.65;;;;;;;;;;4976146;28;20166;-48
2023/10/20 14:00:44;;;;;;;227.57;59.28;;;;;;;;;;4976141;28;20541;-48
2023/10/20 14:03:10;;;;;;;227.40;58.50;;;;;;;;;;4975748;28;20248;-49
2023/10/20 14:05:37;;;;;;;228.00;59.40;;;;;;;;;;4975829;28;20824;-49
2023/10/20 14:08:03;;;;;;;229.80;61.13;;;;;;;;;;4976050;28;20543;-48
2023/10/20 14:10:30;;;;;;;226.27;58.17;;;;;;;;;;4975877;28;20204;-48
2023/10/20 14:12:56;;;;;;;234.07;65.25;;;;;;;;;;4975863;28;20179;-48
2023/10/20 14:15:23;;;;;;;230.10;61.53;;;;;;;;;;4975856;28;20213;-49
2023/10/20 14:17:49;;;;;;;227.85;62.15;;;;;;;;;;4975815;28;20397;-48
2023/10/20 14:20:15;;;;;;;230.20;61.83;;;;;;;;;;4975831;28;20213;-48
2023/10/20 14:22:41;;;;;;;228.43;60.28;;;;;;;;;;4975468;28;20420;-48
2023/10/20 14:25:07;;;;;;;232.05;64.05;;;;;;;;;;4974744;28;20193;-48
2023/10/20 14:27:33;;;;;;;231.27;62.67;;;;;;;;;;4975153;28;20177;-48
2023/10/20 14:30:03;;;;;;;228.13;59.03;;;;;;;;;;4968855;28;20193;-48
2023/10/20 14:32:29;;;;;;;227.07;59.40;;;;;;;;;;4974022;28;20178;-48
2023/10/20 14:34:57;;;;;;;226.57;62.10;;;;;;;;;;4975189;28;20979;-48
2023/10/20 14:37:23;;;;;;;229.37;61.47;;;;;;;;;;4975305;28;20217;-49